Time;durP1;ratioP1;P1;durP2;ratioP2;P2;SDS_P1;SDS_P2;PMS_P1;PMS_P2;Temp;Humidity;BMP_temperature;BMP_pressure;BME280_temperature;BME280_humidity;BME280_pressure;Samples;Min_cycle;Max_cycle;Signal;HPM_P1;HPM_P2
2022/11/01 00:01:56;;;;;;;43.03;19.73;;;;;;;;;;5039680;28;20025;-82
2022/11/01 00:04:22;;;;;;;40.83;19.05;;;;;;;;;;5057466;28;20028;-80
2022/11/01 00:06:49;;;;;;;44.42;19.92;;;;;;;;;;5057691;28;20333;-82
2022/11/01 00:09:15;;;;;;;47.03;19.63;;;;;;;;;;5022468;28;20093;-82
2022/11/01 00:11:41;;;;;;;40.30;18.48;;;;;;;;;;5039499;28;20472;-83
2022/11/01 00:14:07;;;;;;;39.28;18.42;;;;;;;;;;5057579;28;20421;-83
2022/11/01 00:16:33;;;;;;;42.13;19.02;;;;;;;;;;5022736;28;20029;-81
2022/11/01 00:18:59;;;;;;;35.97;18.23;;;;;;;;;;5040405;28;20116;-81
2022/11/01 00:21:25;;;;;;;38.90;17.92;;;;;;;;;;5039642;28;20048;-81
2022/11/01 00:23:50;;;;;;;36.55;18.40;;;;;;;;;;5039048;28;20041;-82
2022/11/01 00:26:20;;;;;;;38.00;17.88;;;;;;;;;;5057400;28;20078;-81
2022/11/01 00:28:47;;;;;;;45.53;18.60;;;;;;;;;;5057103;28;20017;-83
2022/11/01 00:31:14;;;;;;;43.20;18.40;;;;;;;;;;5057007;28;20052;-82
2022/11/01 00:33:41;;;;;;;46.60;20.50;;;;;;;;;;5056160;28;20049;-82
2022/11/01 00:36:08;;;;;;;38.38;18.60;;;;;;;;;;5023351;28;20029;-82
2022/11/01 00:38:34;;;;;;;36.70;17.92;;;;;;;;;;5038465;28;20112;-81
2022/11/01 00:41:02;;;;;;;39.30;17.90;;;;;;;;;;5022129;28;20084;-80
2022/11/01 00:43:30;;;;;;;37.25;17.65;;;;;;;;;;5022966;28;20501;-82
2022/11/01 00:45:55;;;;;;;37.20;18.10;;;;;;;;;;5022831;28;20017;-82
2022/11/01 00:48:21;;;;;;;38.75;19.60;;;;;;;;;;5038301;28;20044;-82
2022/11/01 00:50:46;;;;;;;37.63;19.33;;;;;;;;;;5038333;28;20033;-81
2022/11/01 00:53:12;;;;;;;36.78;19.20;;;;;;;;;;5055521;28;20479;-82
2022/11/01 00:55:38;;;;;;;35.22;18.77;;;;;;;;;;5056603;28;20400;-82
2022/11/01 00:58:07;;;;;;;35.20;17.55;;;;;;;;;;5056467;28;20496;-80
2022/11/01 01:00:33;;;;;;;40.15;20.27;;;;;;;;;;5056194;28;20025;-81
2022/11/01 01:03:05;;;;;;;43.28;19.60;;;;;;;;;;5022673;28;20037;-81
2022/11/01 01:05:33;;;;;;;34.47;19.05;;;;;;;;;;5039299;28;20025;-82
2022/11/01 01:07:58;;;;;;;39.28;18.52;;;;;;;;;;5057556;28;20024;-80
2022/11/01 01:10:24;;;;;;;38.65;19.67;;;;;;;;;;5057275;28;20031;-81
2022/11/01 01:12:51;;;;;;;44.17;20.15;;;;;;;;;;5039347;28;20033;-82
2022/11/01 01:15:17;;;;;;;43.08;19.33;;;;;;;;;;5039073;28;20037;-82
2022/11/01 01:17:43;;;;;;;35.30;18.38;;;;;;;;;;5039831;28;20033;-82
2022/11/01 01:20:09;;;;;;;35.08;18.33;;;;;;;;;;5039166;28;20029;-84
2022/11/01 01:22:35;;;;;;;36.53;18.50;;;;;;;;;;5055393;28;20076;-81
2022/11/01 01:25:01;;;;;;;33.72;18.17;;;;;;;;;;5056334;28;20025;-82
2022/11/01 01:27:26;;;;;;;35.78;17.70;;;;;;;;;;5038267;28;20037;-82
2022/11/01 01:29:52;;;;;;;36.83;16.40;;;;;;;;;;5039071;28;20017;-82
2022/11/01 01:32:20;;;;;;;40.70;18.80;;;;;;;;;;5038692;28;20028;-82
2022/11/01 01:34:46;;;;;;;33.85;17.67;;;;;;;;;;5038556;28;20398;-81
2022/11/01 01:37:14;;;;;;;37.13;18.50;;;;;;;;;;5038277;28;20029;-83
2022/11/01 01:39:40;;;;;;;31.98;16.45;;;;;;;;;;5021603;28;20025;-81
2022/11/01 01:42:32;;;;;;;34.17;18.23;;;;;;;;;;5058160;28;20032;-80
2022/11/01 01:44:58;;;;;;;34.17;17.75;;;;;;;;;;5033051;28;20058;-82
2022/11/01 01:47:36;;;;;;;30.08;15.30;;;;;;;;;;5041057;28;20025;-80
2022/11/01 01:50:10;;;;;;;20.92;12.57;;;;;;;;;;5059133;28;20024;-81
2022/11/01 01:53:03;;;;;;;19.85;12.45;;;;;;;;;;5058870;28;20425;-81
2022/11/01 01:55:47;;;;;;;18.15;12.38;;;;;;;;;;5041259;28;20025;-81
2022/11/01 01:58:16;;;;;;;18.67;11.45;;;;;;;;;;5058677;28;20029;-82
2022/11/01 02:00:43;;;;;;;25.58;12.30;;;;;;;;;;5058736;28;20107;-80
2022/11/01 02:03:11;;;;;;;19.42;10.90;;;;;;;;;;5039675;28;20027;-81
2022/11/01 02:05:56;;;;;;;24.42;12.60;;;;;;;;;;5040005;28;20025;-82
2022/11/01 02:08:26;;;;;;;23.00;12.20;;;;;;;;;;5043848;28;20039;-82
2022/11/01 02:10:59;;;;;;;23.00;13.02;;;;;;;;;;5041066;28;20028;-82
2022/11/01 02:13:30;;;;;;;25.83;13.07;;;;;;;;;;5041867;28;20051;-81
2022/11/01 02:16:22;;;;;;;23.50;13.32;;;;;;;;;;5041011;28;20056;-80
2022/11/01 02:19:19;;;;;;;21.75;12.93;;;;;;;;;;5041223;28;20044;-80
2022/11/01 02:22:00;;;;;;;24.27;12.02;;;;;;;;;;5042214;28;20049;-81
2022/11/01 02:24:35;;;;;;;23.83;12.88;;;;;;;;;;5042242;28;20064;-81
2022/11/01 02:27:07;;;;;;;18.73;11.57;;;;;;;;;;5040516;28;20028;-81
2022/11/01 02:29:45;;;;;;;23.67;12.60;;;;;;;;;;5040758;28;20185;-81
2022/11/01 02:32:20;;;;;;;23.60;12.75;;;;;;;;;;5040818;28;20033;-80
2022/11/01 02:34:46;;;;;;;21.85;11.77;;;;;;;;;;5059339;28;20032;-83
2022/11/01 02:37:15;;;;;;;22.67;12.13;;;;;;;;;;5058718;28;20036;-82
2022/11/01 02:39:47;;;;;;;21.40;12.38;;;;;;;;;;5040031;28;20009;-82
2022/11/01 02:42:26;;;;;;;25.30;12.32;;;;;;;;;;5058108;28;20053;-82
2022/11/01 02:45:27;;;;;;;36.17;13.27;;;;;;;;;;5059202;28;20009;-82
2022/11/01 02:48:00;;;;;;;22.48;11.40;;;;;;;;;;5040014;28;20087;-79
2022/11/01 02:50:39;;;;;;;19.92;12.10;;;;;;;;;;5040630;28;20021;-81
2022/11/01 02:53:06;;;;;;;19.15;12.60;;;;;;;;;;5057964;28;20032;-82
2022/11/01 02:55:34;;;;;;;19.73;11.50;;;;;;;;;;5059791;28;20027;-81
2022/11/01 02:58:02;;;;;;;18.42;11.35;;;;;;;;;;5059101;28;20025;-81
2022/11/01 03:00:34;;;;;;;21.20;11.70;;;;;;;;;;5041389;28;20029;-81
2022/11/01 03:03:14;;;;;;;19.52;10.70;;;;;;;;;;5058238;28;20029;-81
2022/11/01 03:05:58;;;;;;;23.08;12.15;;;;;;;;;;5041617;28;20031;-80
2022/11/01 03:08:47;;;;;;;16.30;10.07;;;;;;;;;;5042419;28;20056;-80
2022/11/01 03:11:15;;;;;;;19.65;10.85;;;;;;;;;;5059681;28;20032;-80
2022/11/01 03:14:06;;;;;;;16.27;10.75;;;;;;;;;;5058956;28;20083;-81
2022/11/01 03:16:51;;;;;;;24.92;11.23;;;;;;;;;;5041608;28;20029;-81
2022/11/01 03:19:34;;;;;;;19.05;10.82;;;;;;;;;;5040521;28;20750;-81
2022/11/01 03:22:05;;;;;;;19.00;11.07;;;;;;;;;;5058031;28;20025;-82
2022/11/01 03:24:39;;;;;;;21.67;11.77;;;;;;;;;;5040780;28;20147;-82
2022/11/01 03:27:12;;;;;;;19.90;10.93;;;;;;;;;;5057985;28;20029;-81
2022/11/01 03:29:38;;;;;;;;;;;;;;;;;;5040455;28;20059;-81
2022/11/01 03:32:06;;;;;;;18.08;10.77;;;;;;;;;;5023982;28;19924;-81
2022/11/01 03:34:35;;;;;;;18.83;10.55;;;;;;;;;;5039338;28;20506;-81
2022/11/01 03:37:05;;;;;;;16.92;10.48;;;;;;;;;;5057802;28;20074;-80
2022/11/01 03:39:37;;;;;;;18.02;10.27;;;;;;;;;;5039322;28;20029;-81
2022/11/01 03:42:08;;;;;;;23.60;11.02;;;;;;;;;;5040078;28;20089;-82
2022/11/01 03:44:40;;;;;;;16.23;10.52;;;;;;;;;;5055974;28;20037;-81
2022/11/01 03:47:06;;;;;;;18.17;10.23;;;;;;;;;;5038739;28;20025;-82
2022/11/01 03:49:32;;;;;;;20.48;10.00;;;;;;;;;;5022853;28;20053;-80
2022/11/01 03:51:58;;;;;;;17.77;11.20;;;;;;;;;;5057122;28;20063;-80
2022/11/01 03:54:26;;;;;;;17.35;10.00;;;;;;;;;;5041077;28;20032;-82
2022/11/01 03:56:52;;;;;;;20.02;10.68;;;;;;;;;;5041544;28;20519;-81
2022/11/01 03:59:17;;;;;;;16.77;10.48;;;;;;;;;;5040317;28;20025;-81
2022/11/01 04:01:43;;;;;;;16.77;9.75;;;;;;;;;;5045595;28;20032;-81
2022/11/01 04:04:08;;;;;;;22.17;10.27;;;;;;;;;;5062963;28;20052;-81
2022/11/01 04:06:34;;;;;;;15.60;10.00;;;;;;;;;;5040303;28;20025;-81
2022/11/01 04:09:00;;;;;;;19.27;9.00;;;;;;;;;;5039648;28;20017;-81
2022/11/01 04:11:25;;;;;;;15.73;10.07;;;;;;;;;;5040065;28;20052;-82
2022/11/01 04:13:51;;;;;;;19.15;9.70;;;;;;;;;;5056985;28;20473;-80
2022/11/01 04:21:44;;;;;;;13.32;9.13;;;;;;;;;;5056733;28;20405;-80
2022/11/01 04:24:10;;;;;;;16.60;9.43;;;;;;;;;;5057006;28;20049;-81
2022/11/01 04:26:36;;;;;;;18.95;10.23;;;;;;;;;;5039479;28;20531;-82
2022/11/01 04:29:01;;;;;;;18.40;9.98;;;;;;;;;;5058427;28;20043;-82
2022/11/01 04:31:29;;;;;;;21.27;9.95;;;;;;;;;;5038564;28;20064;-81
2022/11/01 04:33:56;;;;;;;20.23;10.38;;;;;;;;;;5057245;28;20025;-81
2022/11/01 04:36:22;;;;;;;17.98;9.15;;;;;;;;;;5056473;28;20025;-81
2022/11/01 04:38:50;;;;;;;15.65;9.60;;;;;;;;;;5038361;28;20377;-81
2022/11/01 04:41:19;;;;;;;16.35;9.63;;;;;;;;;;5038162;28;20529;-80
2022/11/01 04:43:46;;;;;;;16.90;9.95;;;;;;;;;;5037938;28;20083;-80
2022/11/01 04:46:12;;;;;;;16.33;9.20;;;;;;;;;;5038685;28;20025;-82
2022/11/01 04:48:37;;;;;;;15.85;9.60;;;;;;;;;;5038232;28;20094;-81
2022/11/01 04:51:03;;;;;;;15.68;8.85;;;;;;;;;;5038756;28;20108;-82
2022/11/01 04:53:28;;;;;;;19.30;9.13;;;;;;;;;;5039276;28;20029;-81
2022/11/01 04:55:54;;;;;;;16.25;9.50;;;;;;;;;;5040420;28;20123;-82
2022/11/01 04:58:20;;;;;;;15.90;8.82;;;;;;;;;;5058188;28;20028;-80
2022/11/01 05:00:47;;;;;;;14.82;8.70;;;;;;;;;;5039320;28;20124;-81
2022/11/01 05:03:14;;;;;;;14.60;9.15;;;;;;;;;;5039828;28;20036;-81
2022/11/01 05:05:40;;;;;;;17.98;10.43;;;;;;;;;;5038530;28;20393;-80
2022/11/01 05:08:11;;;;;;;16.33;8.55;;;;;;;;;;5057831;28;20029;-81
2022/11/01 05:10:40;;;;;;;16.38;7.88;;;;;;;;;;5056202;28;20116;-81
2022/11/01 05:13:06;;;;;;;18.35;8.90;;;;;;;;;;5055152;28;20033;-81
2022/11/01 05:15:32;;;;;;;13.27;8.38;;;;;;;;;;5037794;28;20029;-81
2022/11/01 05:17:58;;;;;;;13.25;7.90;;;;;;;;;;5042474;28;20119;-81
2022/11/01 05:20:24;;;;;;;15.27;8.77;;;;;;;;;;5042938;28;20029;-82
2022/11/01 05:22:49;;;;;;;13.10;8.13;;;;;;;;;;5060754;28;20152;-81
2022/11/01 05:25:16;;;;;;;14.00;8.25;;;;;;;;;;5059791;28;20029;-83
2022/11/01 05:27:42;;;;;;;15.18;8.60;;;;;;;;;;5060372;28;20105;-83
2022/11/01 05:30:09;;;;;;;12.65;7.60;;;;;;;;;;5062098;28;20033;-82
2022/11/01 05:32:34;;;;;;;13.50;8.88;;;;;;;;;;5060749;28;20116;-83
2022/11/01 05:35:01;;;;;;;15.63;8.25;;;;;;;;;;5043072;28;20052;-82
2022/11/01 05:37:27;;;;;;;15.02;8.27;;;;;;;;;;5043166;28;20130;-83
2022/11/01 05:39:52;;;;;;;18.77;8.38;;;;;;;;;;5043005;28;20029;-82
2022/11/01 05:42:18;;;;;;;13.60;7.75;;;;;;;;;;5061741;28;20031;-83
2022/11/01 05:44:44;;;;;;;16.85;8.55;;;;;;;;;;5044008;28;20124;-82
2022/11/01 05:47:09;;;;;;;14.98;9.40;;;;;;;;;;5043409;28;20151;-81
2022/11/01 05:49:35;;;;;;;14.70;8.00;;;;;;;;;;5025940;28;20032;-81
2022/11/01 05:52:00;;;;;;;18.10;9.43;;;;;;;;;;5021652;28;20025;-81
2022/11/01 05:54:26;;;;;;;17.23;8.10;;;;;;;;;;5021883;28;20132;-82
2022/11/01 05:56:51;;;;;;;17.75;9.18;;;;;;;;;;5038212;28;20047;-82
2022/11/01 05:59:17;;;;;;;13.40;8.00;;;;;;;;;;5039052;28;20036;-82
2022/11/01 06:01:42;;;;;;;16.15;8.65;;;;;;;;;;5023916;28;20051;-82
2022/11/01 06:04:08;;;;;;;20.42;8.90;;;;;;;;;;5040747;28;20030;-82
2022/11/01 06:06:34;;;;;;;16.50;9.07;;;;;;;;;;5041407;28;20041;-80
2022/11/01 06:09:00;;;;;;;14.35;8.57;;;;;;;;;;5023034;28;20119;-82
2022/11/01 06:11:26;;;;;;;15.23;9.48;;;;;;;;;;5041912;28;20033;-83
2022/11/01 06:14:01;;;;;;;14.45;7.88;;;;;;;;;;5044667;28;20562;-81
2022/11/01 06:16:28;;;;;;;18.80;10.13;;;;;;;;;;5044088;28;20401;-81
2022/11/01 06:18:53;;;;;;;19.02;10.02;;;;;;;;;;5038642;28;20766;-81
2022/11/01 06:21:21;;;;;;;15.65;9.20;;;;;;;;;;5037650;28;20060;-79
2022/11/01 06:23:51;;;;;;;16.88;9.90;;;;;;;;;;5031636;28;20045;-81
2022/11/01 06:26:23;;;;;;;21.80;11.27;;;;;;;;;;5045624;28;20024;-82
2022/11/01 06:28:49;;;;;;;17.65;10.65;;;;;;;;;;5035206;28;20558;-83
2022/11/01 06:31:15;;;;;;;17.08;10.15;;;;;;;;;;5039163;28;20013;-81
2022/11/01 06:33:40;;;;;;;25.85;10.88;;;;;;;;;;5017228;28;20041;-81
2022/11/01 06:36:06;;;;;;;22.88;11.88;;;;;;;;;;5030448;28;20426;-80
2022/11/01 06:38:32;;;;;;;22.45;11.65;;;;;;;;;;5026937;28;20397;-81
2022/11/01 06:40:58;;;;;;;29.95;12.65;;;;;;;;;;5035327;28;20370;-80
2022/11/01 06:43:23;;;;;;;26.95;13.52;;;;;;;;;;5034450;28;20025;-81
2022/11/01 06:45:49;;;;;;;24.65;12.07;;;;;;;;;;5035277;28;20021;-80
2022/11/01 06:48:15;;;;;;;25.85;14.63;;;;;;;;;;5038207;28;20025;-81
2022/11/01 06:50:40;;;;;;;26.63;14.60;;;;;;;;;;5036881;28;20047;-80
2022/11/01 06:53:06;;;;;;;22.45;12.98;;;;;;;;;;5032880;28;20029;-81
2022/11/01 06:55:31;;;;;;;23.60;13.00;;;;;;;;;;5018925;28;20037;-80
2022/11/01 06:57:59;;;;;;;25.83;14.38;;;;;;;;;;5026390;28;20030;-80
2022/11/01 07:00:27;;;;;;;23.23;13.07;;;;;;;;;;5018727;28;20060;-79
2022/11/01 07:03:03;;;;;;;26.02;13.48;;;;;;;;;;5022433;28;20043;-80
2022/11/01 07:05:30;;;;;;;28.73;13.45;;;;;;;;;;5017606;28;20477;-81
2022/11/01 07:07:59;;;;;;;25.55;13.98;;;;;;;;;;5025815;28;20098;-82
2022/11/01 07:10:25;;;;;;;24.13;12.77;;;;;;;;;;5028761;28;20058;-81
2022/11/01 07:12:59;;;;;;;24.70;11.80;;;;;;;;;;5026314;28;20465;-79
2022/11/01 07:15:26;;;;;;;24.67;12.02;;;;;;;;;;5028156;28;20034;-79
2022/11/01 07:17:56;;;;;;;21.75;12.20;;;;;;;;;;5025611;28;20397;-83
2022/11/01 07:20:26;;;;;;;24.08;12.43;;;;;;;;;;5024273;28;20086;-81
2022/11/01 07:23:03;;;;;;;25.35;13.00;;;;;;;;;;5024360;28;20401;-79
2022/11/01 07:25:30;;;;;;;28.63;13.35;;;;;;;;;;5016406;28;20029;-81
2022/11/01 07:27:56;;;;;;;24.27;13.05;;;;;;;;;;5016244;28;20143;-82
2022/11/01 07:30:23;;;;;;;25.52;12.85;;;;;;;;;;5025410;28;20095;-81
2022/11/01 07:32:57;;;;;;;28.23;11.43;;;;;;;;;;5023402;28;20029;-81
2022/11/01 07:35:23;;;;;;;29.70;12.50;;;;;;;;;;5021408;28;20107;-82
2022/11/01 07:37:49;;;;;;;27.35;12.55;;;;;;;;;;5020830;28;20065;-81
2022/11/01 07:40:15;;;;;;;22.60;11.80;;;;;;;;;;5018474;28;20119;-80
2022/11/01 07:42:42;;;;;;;28.83;12.43;;;;;;;;;;5016899;28;20468;-80
2022/11/01 07:45:12;;;;;;;22.65;11.25;;;;;;;;;;5025121;28;20038;-78
2022/11/01 07:47:37;;;;;;;26.77;13.27;;;;;;;;;;5012532;28;20034;-81
2022/11/01 07:50:05;;;;;;;26.25;12.88;;;;;;;;;;5021623;28;20484;-80
2022/11/01 07:52:30;;;;;;;31.65;12.75;;;;;;;;;;5023295;28;20079;-81
2022/11/01 07:54:56;;;;;;;27.52;12.20;;;;;;;;;;5021374;28;20026;-79
2022/11/01 07:57:22;;;;;;;30.15;14.02;;;;;;;;;;5020921;28;20037;-81
2022/11/01 07:59:47;;;;;;;23.98;12.80;;;;;;;;;;5024202;28;20092;-78
2022/11/01 08:02:13;;;;;;;26.23;13.93;;;;;;;;;;5011475;28;20048;-80
2022/11/01 08:04:38;;;;;;;24.80;13.20;;;;;;;;;;5016385;28;20033;-80
2022/11/01 08:07:05;;;;;;;27.08;12.52;;;;;;;;;;5014065;28;20045;-82
2022/11/01 08:09:31;;;;;;;26.00;13.00;;;;;;;;;;5023121;28;20104;-79
2022/11/01 08:11:56;;;;;;;25.13;13.18;;;;;;;;;;5019581;28;20093;-81
2022/11/01 08:14:22;;;;;;;21.63;12.48;;;;;;;;;;5023969;28;20032;-80
2022/11/01 08:16:54;;;;;;;26.75;13.68;;;;;;;;;;5018597;28;20044;-82
2022/11/01 08:19:23;;;;;;;24.83;11.80;;;;;;;;;;5018943;28;20057;-80
2022/11/01 08:21:51;;;;;;;25.13;12.25;;;;;;;;;;5021632;28;20404;-82
2022/11/01 08:24:16;;;;;;;24.35;12.52;;;;;;;;;;5025721;28;20500;-81
2022/11/01 08:26:44;;;;;;;23.70;12.73;;;;;;;;;;5030867;28;20029;-84
2022/11/01 08:29:09;;;;;;;23.48;12.65;;;;;;;;;;5022126;28;20036;-81
2022/11/01 08:31:40;;;;;;;25.45;12.93;;;;;;;;;;5026289;28;20029;-79
2022/11/01 08:34:05;;;;;;;21.92;11.73;;;;;;;;;;5022177;28;20034;-76
2022/11/01 08:36:32;;;;;;;21.15;11.70;;;;;;;;;;5025528;28;20025;-79
2022/11/01 08:39:00;;;;;;;19.38;11.27;;;;;;;;;;5015521;28;20033;-79
2022/11/01 08:41:27;;;;;;;27.25;12.07;;;;;;;;;;5007164;28;20045;-78
2022/11/01 08:43:56;;;;;;;21.55;10.80;;;;;;;;;;5026166;28;20426;-79
2022/11/01 08:46:21;;;;;;;19.95;11.60;;;;;;;;;;5005663;28;20052;-82
2022/11/01 08:48:54;;;;;;;22.65;12.13;;;;;;;;;;5017328;28;20034;-80
2022/11/01 08:51:24;;;;;;;21.13;11.25;;;;;;;;;;5030278;28;20045;-81
2022/11/01 08:53:57;;;;;;;20.55;11.55;;;;;;;;;;5030017;28;20112;-78
2022/11/01 08:56:26;;;;;;;;;;;;;;;;;;5025861;28;20544;-79
2022/11/01 08:58:54;;;;;;;20.83;10.73;;;;;;;;;;5031618;28;19961;-76
2022/11/01 09:01:22;;;;;;;18.38;11.05;;;;;;;;;;5008110;28;20389;-79
2022/11/01 09:03:49;;;;;;;22.92;12.23;;;;;;;;;;5023499;28;20103;-77
2022/11/01 09:06:15;;;;;;;24.10;11.80;;;;;;;;;;5027192;28;20037;-77
2022/11/01 09:08:41;;;;;;;19.10;11.15;;;;;;;;;;5019086;28;20071;-78
2022/11/01 09:11:13;;;;;;;22.63;12.23;;;;;;;;;;5026382;28;20501;-77
2022/11/01 09:13:42;;;;;;;20.70;11.60;;;;;;;;;;5020139;28;20465;-78
2022/11/01 09:16:14;;;;;;;22.85;12.90;;;;;;;;;;5024975;28;20053;-78
2022/11/01 09:18:39;;;;;;;;;;;;;;;;;;5021026;28;20117;-78
2022/11/01 09:21:08;;;;;;;19.65;10.88;;;;;;;;;;5020356;28;20063;-79
2022/11/01 09:23:34;;;;;;;21.95;11.82;;;;;;;;;;5026441;28;20053;-79
2022/11/01 09:26:05;;;;;;;22.85;12.18;;;;;;;;;;5019787;28;20113;-78
2022/11/01 09:28:32;;;;;;;23.85;11.80;;;;;;;;;;5020497;28;20539;-76
2022/11/01 09:31:05;;;;;;;20.73;11.85;;;;;;;;;;5029518;28;20121;-81
2022/11/01 09:33:31;;;;;;;21.02;12.35;;;;;;;;;;5025729;28;20029;-78
2022/11/01 09:35:57;;;;;;;20.92;10.82;;;;;;;;;;5021737;28;20380;-77
2022/11/01 09:38:23;;;;;;;23.35;12.68;;;;;;;;;;5021560;28;20083;-79
2022/11/01 09:40:59;;;;;;;23.83;11.48;;;;;;;;;;5007319;28;20037;-78
2022/11/01 09:43:29;;;;;;;21.15;11.48;;;;;;;;;;5023383;28;20061;-80
2022/11/01 09:45:57;;;;;;;25.75;14.75;;;;;;;;;;5025349;28;20038;-78
2022/11/01 09:48:26;;;;;;;31.27;13.57;;;;;;;;;;5018925;28;20037;-79
2022/11/01 09:50:53;;;;;;;24.45;12.65;;;;;;;;;;5023921;28;20467;-79
2022/11/01 09:53:24;;;;;;;28.77;13.60;;;;;;;;;;5024936;28;20445;-78
2022/11/01 09:55:57;;;;;;;;;;;;;;;;;;5028510;28;20051;-79
2022/11/01 09:58:35;;;;;;;24.55;12.18;;;;;;;;;;5020479;28;20009;-79
2022/11/01 10:01:34;;;;;;;37.08;19.17;;;;;;;;;;5038882;28;20044;-78
2022/11/01 10:04:51;;;;;;;25.27;13.85;;;;;;;;;;5022206;28;20136;-78
2022/11/01 10:07:37;;;;;;;31.45;13.75;;;;;;;;;;4966951;28;20109;-81
2022/11/01 10:10:31;;;;;;;22.10;12.32;;;;;;;;;;4963574;28;20030;-81
2022/11/01 10:13:11;;;;;;;28.17;13.27;;;;;;;;;;5021551;28;20038;-79
2022/11/01 10:16:13;;;;;;;27.38;14.27;;;;;;;;;;5026342;28;20049;-81
2022/11/01 10:19:10;;;;;;;21.95;13.05;;;;;;;;;;5021254;28;20464;-78
2022/11/01 10:21:49;;;;;;;25.55;13.48;;;;;;;;;;5007065;28;20397;-78
2022/11/01 10:24:33;;;;;;;31.13;14.10;;;;;;;;;;5024595;28;20132;-79
2022/11/01 10:27:36;;;;;;;28.20;15.02;;;;;;;;;;5027030;28;20215;-81
2022/11/01 10:30:05;;;;;;;;;;;;;;;;;;5021153;28;20021;-80
2022/11/01 10:32:46;;;;;;;24.58;14.20;;;;;;;;;;5029883;28;19897;-81
2022/11/01 10:35:37;;;;;;;28.13;15.20;;;;;;;;;;5023318;28;20091;-79
2022/11/01 10:38:24;;;;;;;25.45;14.35;;;;;;;;;;5022898;28;20048;-79
2022/11/01 10:40:55;;;;;;;29.90;15.40;;;;;;;;;;5020885;28;21716;-77
2022/11/01 10:43:23;;;;;;;29.80;15.45;;;;;;;;;;5023097;28;20465;-77
2022/11/01 10:45:52;;;;;;;27.30;15.18;;;;;;;;;;5021463;28;20052;-79
2022/11/01 10:48:31;;;;;;;27.63;14.77;;;;;;;;;;5015447;28;20033;-78
2022/11/01 10:51:00;;;;;;;26.45;14.52;;;;;;;;;;5021650;28;20055;-77
2022/11/01 10:53:28;;;;;;;23.70;14.43;;;;;;;;;;5019233;28;20125;-79
2022/11/01 10:55:58;;;;;;;27.48;15.60;;;;;;;;;;5002712;28;20028;-79
2022/11/01 10:58:46;;;;;;;28.40;14.57;;;;;;;;;;5001194;28;20064;-78
2022/11/01 11:01:18;;;;;;;30.25;16.45;;;;;;;;;;5021714;28;20088;-77
2022/11/01 11:03:44;;;;;;;;;;;;;;;;;;5017273;28;20057;-78
2022/11/01 11:06:12;;;;;;;27.27;15.43;;;;;;;;;;5001069;28;19951;-75
2022/11/01 11:08:40;;;;;;;29.83;16.05;;;;;;;;;;5018674;28;20473;-78
2022/11/01 11:11:13;;;;;;;28.92;15.15;;;;;;;;;;5022321;28;20045;-77
2022/11/01 11:13:42;;;;;;;29.35;16.25;;;;;;;;;;5018719;28;20053;-79
2022/11/01 11:16:22;;;;;;;28.42;15.60;;;;;;;;;;5020763;28;20033;-77
2022/11/01 11:19:15;;;;;;;27.80;16.20;;;;;;;;;;5017387;28;20030;-77
2022/11/01 11:21:43;;;;;;;31.35;16.17;;;;;;;;;;5015621;28;20050;-74
2022/11/01 11:24:18;;;;;;;26.95;16.45;;;;;;;;;;5035345;28;20048;-77
2022/11/01 11:26:46;;;;;;;24.92;15.48;;;;;;;;;;5020667;28;20393;-77
2022/11/01 11:29:23;;;;;;;24.33;15.50;;;;;;;;;;5019493;28;20032;-77
2022/11/01 11:31:56;;;;;;;27.15;15.70;;;;;;;;;;5018463;28;20037;-78
2022/11/01 11:34:31;;;;;;;37.90;18.00;;;;;;;;;;5020533;28;20045;-78
2022/11/01 11:37:06;;;;;;;25.05;15.80;;;;;;;;;;5085093;28;20387;-78
2022/11/01 11:39:34;;;;;;;30.83;16.33;;;;;;;;;;5082369;28;20059;-77
2022/11/01 11:42:19;;;;;;;29.75;15.57;;;;;;;;;;5088448;28;20046;-78
2022/11/01 11:44:46;;;;;;;27.33;16.10;;;;;;;;;;5084071;28;20024;-76
2022/11/01 11:47:36;;;;;;;29.45;16.05;;;;;;;;;;5085532;28;20033;-77
2022/11/01 11:50:20;;;;;;;29.52;16.75;;;;;;;;;;5079010;28;20039;-78
2022/11/01 11:52:58;;;;;;;27.33;16.33;;;;;;;;;;5089613;28;20036;-78
2022/11/01 11:55:38;;;;;;;29.55;17.02;;;;;;;;;;5084966;28;20716;-77
2022/11/01 11:58:05;;;;;;;28.45;16.98;;;;;;;;;;5069592;28;20043;-78
2022/11/01 12:00:36;;;;;;;31.92;17.15;;;;;;;;;;5043775;28;20036;-78
2022/11/01 12:03:06;;;;;;;33.70;18.55;;;;;;;;;;5041974;28;20028;-78
2022/11/01 12:05:33;;;;;;;29.23;16.98;;;;;;;;;;5040598;28;20029;-76
2022/11/01 12:07:59;;;;;;;29.90;18.17;;;;;;;;;;5038218;28;20480;-76
2022/11/01 12:10:33;;;;;;;28.02;17.95;;;;;;;;;;5035254;28;20537;-77
2022/11/01 12:13:03;;;;;;;30.25;17.58;;;;;;;;;;5042760;28;20037;-78
2022/11/01 12:15:34;;;;;;;38.07;18.07;;;;;;;;;;5022471;28;20145;-78
2022/11/01 12:18:14;;;;;;;29.67;17.20;;;;;;;;;;5021742;28;20458;-79
2022/11/01 12:20:41;;;;;;;32.88;16.60;;;;;;;;;;5021396;28;20859;-77
2022/11/01 12:23:29;;;;;;;34.95;18.35;;;;;;;;;;5020454;28;20037;-77
2022/11/01 12:26:03;;;;;;;30.33;20.55;;;;;;;;;;5024669;28;20033;-77
2022/11/01 12:28:36;;;;;;;35.17;18.80;;;;;;;;;;5020895;28;20029;-80
2022/11/01 12:31:13;;;;;;;32.28;18.40;;;;;;;;;;5018991;28;20128;-79
2022/11/01 12:34:10;;;;;;;37.17;20.48;;;;;;;;;;5021427;28;20022;-79
2022/11/01 12:36:43;;;;;;;35.90;18.15;;;;;;;;;;5019337;28;20064;-78
2022/11/01 12:39:33;;;;;;;33.50;18.23;;;;;;;;;;5021342;28;20093;-76
2022/11/01 12:42:03;;;;;;;35.85;19.52;;;;;;;;;;5025142;28;20138;-76
2022/11/01 12:44:36;;;;;;;31.95;18.35;;;;;;;;;;5020218;28;20037;-78
2022/11/01 12:47:20;;;;;;;32.47;19.55;;;;;;;;;;5019887;28;20033;-78
2022/11/01 12:49:59;;;;;;;47.92;25.23;;;;;;;;;;5001383;28;20095;-79
2022/11/01 12:52:31;;;;;;;31.60;21.02;;;;;;;;;;5008381;28;20110;-80
2022/11/01 12:55:06;;;;;;;43.38;19.05;;;;;;;;;;5006433;28;20052;-76
2022/11/01 12:57:32;;;;;;;35.42;19.85;;;;;;;;;;5011607;28;20335;-77
2022/11/01 12:59:59;;;;;;;39.85;19.30;;;;;;;;;;4998636;28;20070;-78
2022/11/01 13:02:31;;;;;;;37.05;19.83;;;;;;;;;;5016330;28;20033;-76
2022/11/01 13:05:19;;;;;;;35.83;19.20;;;;;;;;;;5005286;28;20034;-78
2022/11/01 13:07:56;;;;;;;34.00;18.33;;;;;;;;;;5008349;28;20474;-78
2022/11/01 13:10:32;;;;;;;36.70;18.83;;;;;;;;;;5007926;28;20456;-78
2022/11/01 13:13:13;;;;;;;36.95;18.75;;;;;;;;;;5011536;28;20480;-78
2022/11/01 13:16:03;;;;;;;37.33;18.88;;;;;;;;;;5023999;28;20033;-76
2022/11/01 13:18:56;;;;;;;32.17;18.75;;;;;;;;;;5007258;28;20107;-77
2022/11/01 13:21:56;;;;;;;35.45;20.00;;;;;;;;;;5025100;28;20033;-77
2022/11/01 13:24:33;;;;;;;31.88;18.15;;;;;;;;;;5008149;28;20057;-77
2022/11/01 13:26:59;;;;;;;31.20;17.38;;;;;;;;;;5008717;28;20593;-76
2022/11/01 13:30:02;;;;;;;31.33;19.23;;;;;;;;;;5004695;28;20040;-77
2022/11/01 13:32:49;;;;;;;41.25;21.48;;;;;;;;;;5008841;28;20026;-76
2022/11/01 13:35:37;;;;;;;35.13;18.80;;;;;;;;;;5011066;28;20041;-75
2022/11/01 13:38:40;;;;;;;36.47;18.27;;;;;;;;;;5008241;28;20123;-78
2022/11/01 13:41:18;;;;;;;31.27;17.35;;;;;;;;;;5008314;28;20036;-77
2022/11/01 13:43:53;;;;;;;47.30;27.48;;;;;;;;;;5003944;28;20026;-77
2022/11/01 13:47:06;;;;;;;45.10;20.48;;;;;;;;;;5020778;28;20041;-76
2022/11/01 13:49:49;;;;;;;37.45;17.52;;;;;;;;;;5011794;28;20030;-76
2022/11/01 13:52:19;;;;;;;36.65;18.55;;;;;;;;;;5007039;28;20505;-76
2022/11/01 13:54:50;;;;;;;36.10;18.92;;;;;;;;;;5010847;28;20026;-76
2022/11/01 13:57:20;;;;;;;33.97;19.80;;;;;;;;;;5008332;28;20037;-76
2022/11/01 13:59:52;;;;;;;37.13;18.92;;;;;;;;;;4989678;28;20056;-75
2022/11/01 14:02:24;;;;;;;36.17;19.60;;;;;;;;;;4992492;28;20037;-77
2022/11/01 14:05:03;;;;;;;33.38;18.25;;;;;;;;;;5000920;28;20033;-77
2022/11/01 14:07:37;;;;;;;32.92;20.23;;;;;;;;;;5000018;28;20421;-78
2022/11/01 14:10:21;;;;;;;34.38;18.95;;;;;;;;;;4995148;28;20038;-77
2022/11/01 14:12:57;;;;;;;32.28;17.98;;;;;;;;;;4997345;28;20038;-77
2022/11/01 14:15:25;;;;;;;31.90;18.30;;;;;;;;;;5000708;28;20041;-77
2022/11/01 14:17:51;;;;;;;28.35;17.90;;;;;;;;;;4998336;28;20273;-76
2022/11/01 14:20:30;;;;;;;31.92;19.15;;;;;;;;;;4998773;28;20046;-78
2022/11/01 14:22:58;;;;;;;34.13;18.83;;;;;;;;;;5001243;28;20105;-77
2022/11/01 14:25:30;;;;;;;36.30;18.85;;;;;;;;;;5001789;28;20022;-81
2022/11/01 14:28:21;;;;;;;34.70;18.80;;;;;;;;;;4998962;28;20034;-78
2022/11/01 14:30:48;;;;;;;35.97;18.95;;;;;;;;;;4993649;28;20445;-80
2022/11/01 14:33:21;;;;;;;36.17;18.98;;;;;;;;;;4996178;28;20026;-78
2022/11/01 14:35:53;;;;;;;38.35;20.65;;;;;;;;;;4996043;28;20113;-77
2022/11/01 14:38:32;;;;;;;40.67;20.73;;;;;;;;;;4993590;28;20059;-79
2022/11/01 14:40:59;;;;;;;38.75;19.10;;;;;;;;;;4996283;28;20087;-78
2022/11/01 14:43:41;;;;;;;46.42;19.85;;;;;;;;;;4972161;28;20033;-78
2022/11/01 14:46:06;;;;;;;;;;;;;;;;;;4992431;28;20394;-77
2022/11/01 14:48:52;;;;;;;31.20;16.60;;;;;;;;;;4994620;28;19963;-78
2022/11/01 14:51:24;;;;;;;35.53;18.48;;;;;;;;;;4988108;28;20046;-76
2022/11/01 14:53:58;;;;;;;31.95;17.40;;;;;;;;;;4984884;28;20030;-76